sensor_id;sensor_type;location;lat;lon;timestamp;pressure;altitude;pressure_sealevel;temperature;humidity
31088;BME280;17745;55.914;37.554;2023-04-05T00:01:45;99373.47;;;8.64;63.92
31088;BME280;17745;55.914;37.554;2023-04-05T00:04:17;99375.63;;;8.67;63.72
31088;BME280;17745;55.914;37.554;2023-04-05T00:06:46;99374.03;;;8.66;63.71
31088;BME280;17745;55.914;37.554;2023-04-05T00:09:19;99378.25;;;8.67;63.72
31088;BME280;17745;55.914;37.554;2023-04-05T00:11:47;99371.97;;;8.68;63.72
31088;BME280;17745;55.914;37.554;2023-04-05T00:14:15;99369.56;;;8.66;63.72
31088;BME280;17745;55.914;37.554;2023-04-05T00:16:44;99369.59;;;8.54;64.02
31088;BME280;17745;55.914;37.554;2023-04-05T00:19:49;99376.00;;;8.47;64.15
31088;BME280;17745;55.914;37.554;2023-04-05T00:22:23;99374.19;;;8.47;63.99
31088;BME280;17745;55.914;37.554;2023-04-05T00:25:10;99374.06;;;8.42;63.93
31088;BME280;17745;55.914;37.554;2023-04-05T00:27:42;99371.56;;;8.35;64.03
31088;BME280;17745;55.914;37.554;2023-04-05T00:30:10;99376.63;;;8.37;63.98
31088;BME280;17745;55.914;37.554;2023-04-05T00:32:56;99376.53;;;8.32;64.01
31088;BME280;17745;55.914;37.554;2023-04-05T00:35:27;99374.94;;;8.19;64.38
31088;BME280;17745;55.914;37.554;2023-04-05T00:37:56;99377.78;;;8.17;64.38
31088;BME280;17745;55.914;37.554;2023-04-05T00:40:24;99374.59;;;8.15;64.32
31088;BME280;17745;55.914;37.554;2023-04-05T00:42:54;99378.63;;;8.18;64.28
31088;BME280;17745;55.914;37.554;2023-04-05T00:45:22;99377.13;;;8.10;64.37
31088;BME280;17745;55.914;37.554;2023-04-05T00:47:51;99379.66;;;8.17;64.15
31088;BME280;17745;55.914;37.554;2023-04-05T00:50:24;99380.66;;;8.04;64.47
31088;BME280;17745;55.914;37.554;2023-04-05T00:52:58;99383.00;;;7.76;65.09
31088;BME280;17745;55.914;37.554;2023-04-05T00:55:29;99383.87;;;7.58;65.49
31088;BME280;17745;55.914;37.554;2023-04-05T00:58:01;99385.72;;;7.57;65.44
31088;BME280;17745;55.914;37.554;2023-04-05T01:00:35;99384.31;;;7.31;66.08
31088;BME280;17745;55.914;37.554;2023-04-05T01:03:06;99391.87;;;7.39;65.64
31088;BME280;17745;55.914;37.554;2023-04-05T01:05:41;99386.25;;;6.93;66.53
31088;BME280;17745;55.914;37.554;2023-04-05T01:08:20;99398.03;;;6.91;66.76
31088;BME280;17745;55.914;37.554;2023-04-05T01:10:54;99401.28;;;7.05;65.99
31088;BME280;17745;55.914;37.554;2023-04-05T01:13:24;99398.09;;;7.03;65.76
31088;BME280;17745;55.914;37.554;2023-04-05T01:15:53;99397.06;;;6.54;66.83
31088;BME280;17745;55.914;37.554;2023-04-05T01:18:24;99401.94;;;6.69;66.38
31088;BME280;17745;55.914;37.554;2023-04-05T01:21:19;99399.63;;;6.61;66.61
31088;BME280;17745;55.914;37.554;2023-04-05T01:23:58;99386.56;;;6.85;65.48
31088;BME280;17745;55.914;37.554;2023-04-05T01:26:45;99385.78;;;6.84;65.43
31088;BME280;17745;55.914;37.554;2023-04-05T01:29:39;99392.22;;;6.89;65.38
31088;BME280;17745;55.914;37.554;2023-04-05T01:32:21;99395.38;;;6.79;65.58
31088;BME280;17745;55.914;37.554;2023-04-05T01:34:55;99389.66;;;6.82;65.36
31088;BME280;17745;55.914;37.554;2023-04-05T01:37:32;99383.97;;;6.66;65.68
31088;BME280;17745;55.914;37.554;2023-04-05T01:40:02;99387.97;;;6.87;65.17
31088;BME280;17745;55.914;37.554;2023-04-05T01:42:42;99393.22;;;6.87;65.16
31088;BME280;17745;55.914;37.554;2023-04-05T01:45:15;99400.09;;;6.89;65.08
31088;BME280;17745;55.914;37.554;2023-04-05T01:47:45;99398.34;;;6.82;65.36
31088;BME280;17745;55.914;37.554;2023-04-05T01:50:17;99400.41;;;6.80;65.36
31088;BME280;17745;55.914;37.554;2023-04-05T01:52:46;99400.75;;;6.84;65.17
31088;BME280;17745;55.914;37.554;2023-04-05T01:55:16;99398.94;;;6.84;65.21
31088;BME280;17745;55.914;37.554;2023-04-05T01:57:56;99398.22;;;6.77;65.39
31088;BME280;17745;55.914;37.554;2023-04-05T02:00:26;99398.25;;;6.89;65.15
31088;BME280;17745;55.914;37.554;2023-04-05T02:02:56;99397.69;;;6.87;65.30
31088;BME280;17745;55.914;37.554;2023-04-05T02:05:26;99404.09;;;6.91;65.10
31088;BME280;17745;55.914;37.554;2023-04-05T02:07:55;99404.38;;;6.71;65.51
31088;BME280;17745;55.914;37.554;2023-04-05T02:10:26;99413.56;;;6.80;65.25
31088;BME280;17745;55.914;37.554;2023-04-05T02:12:54;99410.84;;;6.87;64.97
31088;BME280;17745;55.914;37.554;2023-04-05T02:15:26;99403.03;;;6.80;65.08
31088;BME280;17745;55.914;37.554;2023-04-05T02:17:57;99410.19;;;6.92;64.84
31088;BME280;17745;55.914;37.554;2023-04-05T02:20:38;99419.91;;;6.91;65.04
31088;BME280;17745;55.914;37.554;2023-04-05T02:23:17;99419.69;;;6.93;64.79
31088;BME280;17745;55.914;37.554;2023-04-05T02:25:47;99419.72;;;6.74;65.30
31088;BME280;17745;55.914;37.554;2023-04-05T02:28:36;99424.72;;;6.64;65.36
31088;BME280;17745;55.914;37.554;2023-04-05T02:31:12;99427.28;;;6.82;64.86
31088;BME280;17745;55.914;37.554;2023-04-05T02:33:43;99420.25;;;6.95;64.92
31088;BME280;17745;55.914;37.554;2023-04-05T02:36:12;99426.34;;;6.95;64.96
31088;BME280;17745;55.914;37.554;2023-04-05T02:38:40;99416.50;;;6.72;65.22
31088;BME280;17745;55.914;37.554;2023-04-05T02:41:14;99433.81;;;6.80;64.95
31088;BME280;17745;55.914;37.554;2023-04-05T02:43:45;99431.53;;;6.83;64.99
31088;BME280;17745;55.914;37.554;2023-04-05T02:46:25;99433.94;;;6.85;64.79
31088;BME280;17745;55.914;37.554;2023-04-05T02:49:17;99435.22;;;6.64;65.30
31088;BME280;17745;55.914;37.554;2023-04-05T02:51:45;99434.56;;;6.50;65.42
31088;BME280;17745;55.914;37.554;2023-04-05T02:54:14;99452.19;;;6.68;65.03
31088;BME280;17745;55.914;37.554;2023-04-05T02:56:42;99442.50;;;6.62;65.21
31088;BME280;17745;55.914;37.554;2023-04-05T02:59:11;99440.84;;;6.49;65.60
31088;BME280;17745;55.914;37.554;2023-04-05T03:01:43;99442.25;;;6.51;65.36
31088;BME280;17745;55.914;37.554;2023-04-05T03:04:15;99453.41;;;6.65;65.02
31088;BME280;17745;55.914;37.554;2023-04-05T03:06:45;99452.72;;;6.14;66.33
31088;BME280;17745;55.914;37.554;2023-04-05T03:09:16;99453.84;;;6.43;65.48
31088;BME280;17745;55.914;37.554;2023-04-05T03:11:46;99451.94;;;6.51;65.35
31088;BME280;17745;55.914;37.554;2023-04-05T03:14:15;99457.00;;;6.52;65.36
31088;BME280;17745;55.914;37.554;2023-04-05T03:16:51;99456.69;;;6.61;65.06
31088;BME280;17745;55.914;37.554;2023-04-05T03:19:20;99453.78;;;6.69;65.01
31088;BME280;17745;55.914;37.554;2023-04-05T03:21:52;99457.88;;;6.65;65.04
31088;BME280;17745;55.914;37.554;2023-04-05T03:24:21;99458.97;;;6.76;64.92
31088;BME280;17745;55.914;37.554;2023-04-05T03:26:54;99456.09;;;6.58;65.26
31088;BME280;17745;55.914;37.554;2023-04-05T03:29:30;99465.25;;;6.75;64.89
31088;BME280;17745;55.914;37.554;2023-04-05T03:32:02;99461.22;;;6.72;64.95
31088;BME280;17745;55.914;37.554;2023-04-05T03:34:31;99464.31;;;6.50;65.43
31088;BME280;17745;55.914;37.554;2023-04-05T03:37:05;99459.56;;;6.59;65.16
31088;BME280;17745;55.914;37.554;2023-04-05T03:39:39;99469.25;;;6.58;65.18
31088;BME280;17745;55.914;37.554;2023-04-05T03:42:06;99472.97;;;6.51;65.38
31088;BME280;17745;55.914;37.554;2023-04-05T03:44:35;99474.25;;;6.67;65.05
31088;BME280;17745;55.914;37.554;2023-04-05T03:47:09;99478.25;;;6.51;65.26
31088;BME280;17745;55.914;37.554;2023-04-05T03:49:43;99479.97;;;6.64;65.06
31088;BME280;17745;55.914;37.554;2023-04-05T03:52:13;99479.06;;;6.70;64.93
31088;BME280;17745;55.914;37.554;2023-04-05T03:54:45;99482.87;;;6.74;64.93
31088;BME280;17745;55.914;37.554;2023-04-05T03:57:15;99483.81;;;6.80;64.85
31088;BME280;17745;55.914;37.554;2023-04-05T03:59:47;99477.16;;;5.89;67.29
31088;BME280;17745;55.914;37.554;2023-04-05T04:02:26;99483.75;;;5.98;67.08
31088;BME280;17745;55.914;37.554;2023-04-05T04:05:03;99482.03;;;5.85;67.32
31088;BME280;17745;55.914;37.554;2023-04-05T04:07:34;99479.81;;;5.89;67.47
31088;BME280;17745;55.914;37.554;2023-04-05T04:10:03;99491.50;;;6.19;66.50
31088;BME280;17745;55.914;37.554;2023-04-05T04:12:38;99485.38;;;5.99;67.06
31088;BME280;17745;55.914;37.554;2023-04-05T04:15:09;99498.69;;;6.30;66.24
31088;BME280;17745;55.914;37.554;2023-04-05T04:17:39;99505.25;;;6.65;65.49
31088;BME280;17745;55.914;37.554;2023-04-05T04:20:11;99492.50;;;6.62;65.57
31088;BME280;17745;55.914;37.554;2023-04-05T04:22:41;99505.56;;;6.50;65.78
31088;BME280;17745;55.914;37.554;2023-04-05T04:25:13;99505.72;;;5.53;68.22
31088;BME280;17745;55.914;37.554;2023-04-05T04:27:46;99510.31;;;5.58;68.26
31088;BME280;17745;55.914;37.554;2023-04-05T04:30:16;99517.22;;;6.17;66.69
31088;BME280;17745;55.914;37.554;2023-04-05T04:32:52;99514.13;;;6.82;65.35
31088;BME280;17745;55.914;37.554;2023-04-05T04:35:23;99513.19;;;6.58;65.95
31088;BME280;17745;55.914;37.554;2023-04-05T04:37:54;99513.94;;;6.84;65.04
31088;BME280;17745;55.914;37.554;2023-04-05T04:40:27;99525.16;;;6.72;65.20
31088;BME280;17745;55.914;37.554;2023-04-05T04:42:58;99515.91;;;6.89;64.74
31088;BME280;17745;55.914;37.554;2023-04-05T04:45:30;99516.34;;;6.85;64.77
31088;BME280;17745;55.914;37.554;2023-04-05T04:48:01;99531.53;;;6.46;65.84
31088;BME280;17745;55.914;37.554;2023-04-05T04:50:31;99521.16;;;7.07;64.67
31088;BME280;17745;55.914;37.554;2023-04-05T04:53:01;99522.19;;;6.87;65.23
31088;BME280;17745;55.914;37.554;2023-04-05T04:55:35;99530.13;;;7.37;64.43
31088;BME280;17745;55.914;37.554;2023-04-05T04:58:03;99528.31;;;7.19;64.57
31088;BME280;17745;55.914;37.554;2023-04-05T05:00:37;99527.69;;;7.35;64.15
31088;BME280;17745;55.914;37.554;2023-04-05T05:03:07;99526.25;;;7.21;64.35
31088;BME280;17745;55.914;37.554;2023-04-05T05:05:42;99524.53;;;6.96;64.92
31088;BME280;17745;55.914;37.554;2023-04-05T05:08:10;99527.47;;;7.06;64.67
31088;BME280;17745;55.914;37.554;2023-04-05T05:10:39;99534.22;;;7.14;64.48
31088;BME280;17745;55.914;37.554;2023-04-05T05:13:07;99529.25;;;7.24;64.14
31088;BME280;17745;55.914;37.554;2023-04-05T05:15:39;99540.91;;;7.47;63.84
31088;BME280;17745;55.914;37.554;2023-04-05T05:18:14;99535.44;;;7.49;63.82
31088;BME280;17745;55.914;37.554;2023-04-05T05:20:59;99537.56;;;7.70;63.48
31088;BME280;17745;55.914;37.554;2023-04-05T05:23:28;99548.12;;;7.82;63.25
31088;BME280;17745;55.914;37.554;2023-04-05T05:25:57;99551.22;;;7.79;63.30
31088;BME280;17745;55.914;37.554;2023-04-05T05:28:26;99545.84;;;7.86;62.87
31088;BME280;17745;55.914;37.554;2023-04-05T05:30:54;99550.34;;;7.97;62.90
31088;BME280;17745;55.914;37.554;2023-04-05T05:33:25;99549.69;;;8.14;62.71
31088;BME280;17745;55.914;37.554;2023-04-05T05:35:53;99558.06;;;8.35;62.78
31088;BME280;17745;55.914;37.554;2023-04-05T05:38:21;99557.16;;;8.41;62.58
31088;BME280;17745;55.914;37.554;2023-04-05T05:40:54;99554.06;;;8.56;62.67
31088;BME280;17745;55.914;37.554;2023-04-05T05:43:23;99553.38;;;8.72;62.73
31088;BME280;17745;55.914;37.554;2023-04-05T05:45:51;99555.62;;;9.05;62.50
31088;BME280;17745;55.914;37.554;2023-04-05T05:48:18;99557.69;;;9.14;61.99
31088;BME280;17745;55.914;37.554;2023-04-05T05:50:51;99565.06;;;9.00;61.52
31088;BME280;17745;55.914;37.554;2023-04-05T05:53:22;99564.72;;;8.97;61.31
31088;BME280;17745;55.914;37.554;2023-04-05T05:55:51;99567.28;;;8.92;61.48
31088;BME280;17745;55.914;37.554;2023-04-05T05:58:18;99561.66;;;8.64;61.85
31088;BME280;17745;55.914;37.554;2023-04-05T06:00:46;99559.34;;;8.56;61.98
31088;BME280;17745;55.914;37.554;2023-04-05T06:03:17;99559.13;;;8.57;61.81
31088;BME280;17745;55.914;37.554;2023-04-05T06:05:51;99569.19;;;8.49;62.00
31088;BME280;17745;55.914;37.554;2023-04-05T06:08:21;99568.88;;;8.57;61.98
31088;BME280;17745;55.914;37.554;2023-04-05T06:10:50;99566.00;;;8.47;62.28
31088;BME280;17745;55.914;37.554;2023-04-05T06:13:19;99570.06;;;8.61;62.03
31088;BME280;17745;55.914;37.554;2023-04-05T06:15:49;99577.84;;;8.92;61.79
31088;BME280;17745;55.914;37.554;2023-04-05T06:18:17;99574.91;;;9.05;61.54
31088;BME280;17745;55.914;37.554;2023-04-05T06:20:48;99579.56;;;9.39;61.58
31088;BME280;17745;55.914;37.554;2023-04-05T06:23:22;99575.44;;;9.60;60.57
31088;BME280;17745;55.914;37.554;2023-04-05T06:25:51;99576.28;;;9.78;60.45
31088;BME280;17745;55.914;37.554;2023-04-05T06:28:23;99575.25;;;9.96;60.85
31088;BME280;17745;55.914;37.554;2023-04-05T06:30:57;99587.22;;;9.81;59.99
31088;BME280;17745;55.914;37.554;2023-04-05T06:33:26;99585.25;;;9.77;60.01
31088;BME280;17745;55.914;37.554;2023-04-05T06:35:57;99579.03;;;9.54;60.05
31088;BME280;17745;55.914;37.554;2023-04-05T06:38:31;99584.97;;;9.61;59.78
31088;BME280;17745;55.914;37.554;2023-04-05T06:41:21;99583.03;;;9.85;59.69
31088;BME280;17745;55.914;37.554;2023-04-05T06:43:53;99586.78;;;9.72;59.87
31088;BME280;17745;55.914;37.554;2023-04-05T06:46:21;99591.13;;;9.79;59.84
31088;BME280;17745;55.914;37.554;2023-04-05T06:49:04;99588.00;;;9.53;60.17
31088;BME280;17745;55.914;37.554;2023-04-05T06:51:33;99587.44;;;9.80;59.82
31088;BME280;17745;55.914;37.554;2023-04-05T06:54:03;99594.94;;;10.34;59.76
31088;BME280;17745;55.914;37.554;2023-04-05T06:56:31;99579.28;;;10.84;59.82
31088;BME280;17745;55.914;37.554;2023-04-05T06:58:59;99585.56;;;10.61;58.59
31088;BME280;17745;55.914;37.554;2023-04-05T07:01:35;99589.41;;;10.53;57.99
31088;BME280;17745;55.914;37.554;2023-04-05T07:04:09;99583.00;;;10.49;58.01
31088;BME280;17745;55.914;37.554;2023-04-05T07:06:37;99586.84;;;10.97;57.76
31088;BME280;17745;55.914;37.554;2023-04-05T07:09:07;99588.94;;;11.40;57.94
31088;BME280;17745;55.914;37.554;2023-04-05T07:11:37;99576.75;;;11.17;57.47
31088;BME280;17745;55.914;37.554;2023-04-05T07:14:05;99586.78;;;11.37;57.13
31088;BME280;17745;55.914;37.554;2023-04-05T07:16:33;99584.53;;;11.51;57.55
31088;BME280;17745;55.914;37.554;2023-04-05T07:19:01;99585.25;;;11.19;57.02
31088;BME280;17745;55.914;37.554;2023-04-05T07:21:34;99587.72;;;11.25;56.57
31088;BME280;17745;55.914;37.554;2023-04-05T07:24:03;99584.81;;;11.27;56.75
31088;BME280;17745;55.914;37.554;2023-04-05T07:26:37;99595.16;;;11.51;55.98
31088;BME280;17745;55.914;37.554;2023-04-05T07:29:21;99592.28;;;11.80;56.11
31088;BME280;17745;55.914;37.554;2023-04-05T07:32:04;99590.56;;;11.96;56.07
31088;BME280;17745;55.914;37.554;2023-04-05T07:34:32;99595.00;;;12.12;55.90
31088;BME280;17745;55.914;37.554;2023-04-05T07:37:05;99596.53;;;12.41;56.31
31088;BME280;17745;55.914;37.554;2023-04-05T08:56:59;99604.09;;;13.87;49.59
31088;BME280;17745;55.914;37.554;2023-04-05T09:00:00;99597.09;;;13.44;49.33
31088;BME280;17745;55.914;37.554;2023-04-05T09:03:11;99601.97;;;14.05;49.01
31088;BME280;17745;55.914;37.554;2023-04-05T09:09:48;99604.09;;;14.28;48.90
31088;BME280;17745;55.914;37.554;2023-04-05T09:23:22;99614.22;;;13.11;50.09
31088;BME280;17745;55.914;37.554;2023-04-05T09:26:17;99613.41;;;14.05;49.14
31088;BME280;17745;55.914;37.554;2023-04-05T09:29:01;99604.63;;;14.15;48.48
31088;BME280;17745;55.914;37.554;2023-04-05T09:31:59;99613.69;;;14.40;48.38
31088;BME280;17745;55.914;37.554;2023-04-05T09:34:44;99613.69;;;14.61;48.17
31088;BME280;17745;55.914;37.554;2023-04-05T09:37:26;99611.28;;;14.43;47.45
31088;BME280;17745;55.914;37.554;2023-04-05T10:04:19;99606.25;;;14.00;47.66
31088;BME280;17745;55.914;37.554;2023-04-05T10:07:07;99625.47;;;13.28;48.53
31088;BME280;17745;55.914;37.554;2023-04-05T10:10:09;99620.31;;;13.11;48.86
31088;BME280;17745;55.914;37.554;2023-04-05T10:13:10;99616.97;;;13.42;48.26
31088;BME280;17745;55.914;37.554;2023-04-05T10:16:12;99614.03;;;12.75;49.49
31088;BME280;17745;55.914;37.554;2023-04-05T11:35:12;99613.13;;;14.74;46.30
31088;BME280;17745;55.914;37.554;2023-04-05T11:37:55;99614.91;;;15.15;45.48
31088;BME280;17745;55.914;37.554;2023-04-05T11:40:27;99613.37;;;14.83;45.56
31088;BME280;17745;55.914;37.554;2023-04-05T11:43:00;99601.94;;;14.67;45.55
31088;BME280;17745;55.914;37.554;2023-04-05T11:45:29;99597.97;;;14.23;46.17
31088;BME280;17745;55.914;37.554;2023-04-05T11:48:07;99603.56;;;14.63;45.58
31088;BME280;17745;55.914;37.554;2023-04-05T11:50:40;99596.37;;;14.53;45.63
31088;BME280;17745;55.914;37.554;2023-04-05T11:53:17;99588.72;;;15.22;44.45
31088;BME280;17745;55.914;37.554;2023-04-05T11:56:16;99591.69;;;15.15;44.44
31088;BME280;17745;55.914;37.554;2023-04-05T11:58:45;99594.88;;;15.18;44.45
31088;BME280;17745;55.914;37.554;2023-04-05T12:01:13;99588.84;;;15.52;43.87
31088;BME280;17745;55.914;37.554;2023-04-05T12:03:42;99582.09;;;15.65;43.45
31088;BME280;17745;55.914;37.554;2023-04-05T12:06:21;99588.16;;;15.76;43.34
31088;BME280;17745;55.914;37.554;2023-04-05T12:08:51;99579.88;;;15.77;42.90
31088;BME280;17745;55.914;37.554;2023-04-05T12:11:33;99580.47;;;15.69;43.15
31088;BME280;17745;55.914;37.554;2023-04-05T12:14:37;99572.59;;;15.88;42.59
31088;BME280;17745;55.914;37.554;2023-04-05T12:17:41;99577.84;;;16.04;42.66
31088;BME280;17745;55.914;37.554;2023-04-05T12:20:12;99571.59;;;15.34;43.38
31088;BME280;17745;55.914;37.554;2023-04-05T12:25:31;99575.59;;;15.36;43.26
31088;BME280;17745;55.914;37.554;2023-04-05T12:28:08;99573.34;;;15.54;42.88
31088;BME280;17745;55.914;37.554;2023-04-05T12:30:47;99575.34;;;16.18;42.13
31088;BME280;17745;55.914;37.554;2023-04-05T12:33:25;99575.91;;;16.44;41.58
31088;BME280;17745;55.914;37.554;2023-04-05T12:35:58;99576.69;;;16.93;41.11
31088;BME280;17745;55.914;37.554;2023-04-05T12:38:37;99584.25;;;16.62;41.14
31088;BME280;17745;55.914;37.554;2023-04-05T12:41:09;99578.66;;;16.87;40.92
31088;BME280;17745;55.914;37.554;2023-04-05T12:43:45;99569.94;;;17.01;40.40
31088;BME280;17745;55.914;37.554;2023-04-05T12:49:03;99564.66;;;16.96;40.35
31088;BME280;17745;55.914;37.554;2023-04-05T12:51:35;99563.62;;;15.73;42.01
31088;BME280;17745;55.914;37.554;2023-04-05T12:54:07;99564.06;;;16.50;41.04
31088;BME280;17745;55.914;37.554;2023-04-05T12:56:37;99566.59;;;16.66;40.80
31088;BME280;17745;55.914;37.554;2023-04-05T12:59:06;99558.91;;;16.59;40.69
31088;BME280;17745;55.914;37.554;2023-04-05T13:01:48;99570.56;;;16.93;40.48
31088;BME280;17745;55.914;37.554;2023-04-05T13:04:20;99584.16;;;16.72;40.44
31088;BME280;17745;55.914;37.554;2023-04-05T13:06:51;99579.16;;;16.90;40.10
31088;BME280;17745;55.914;37.554;2023-04-05T13:12:14;99564.06;;;17.42;39.54
31088;BME280;17745;55.914;37.554;2023-04-05T13:14:42;99570.12;;;17.10;39.82
31088;BME280;17745;55.914;37.554;2023-04-05T13:17:11;99578.47;;;17.27;39.57
31088;BME280;17745;55.914;37.554;2023-04-05T13:19:53;99563.56;;;16.97;39.94
31088;BME280;17745;55.914;37.554;2023-04-05T13:22:21;99572.38;;;16.49;40.53
31088;BME280;17745;55.914;37.554;2023-04-05T13:24:59;99570.72;;;16.77;40.05
31088;BME280;17745;55.914;37.554;2023-04-05T13:31:47;99576.81;;;15.99;41.04
31088;BME280;17745;55.914;37.554;2023-04-05T13:34:24;99583.53;;;15.86;41.18
31088;BME280;17745;55.914;37.554;2023-04-05T13:36:58;99577.94;;;15.88;41.29
31088;BME280;17745;55.914;37.554;2023-04-05T13:39:27;99583.66;;;16.11;41.16
31088;BME280;17745;55.914;37.554;2023-04-05T13:41:57;99580.94;;;16.16;40.95
31088;BME280;17745;55.914;37.554;2023-04-05T13:44:27;99572.47;;;16.09;41.10
31088;BME280;17745;55.914;37.554;2023-04-05T13:49:51;99569.16;;;14.82;43.36
31088;BME280;17745;55.914;37.554;2023-04-05T13:52:22;99572.09;;;14.80;43.53
31088;BME280;17745;55.914;37.554;2023-04-05T13:54:53;99582.53;;;14.20;45.01
31088;BME280;17745;55.914;37.554;2023-04-05T13:57:23;99564.66;;;14.62;44.16
31088;BME280;17745;55.914;37.554;2023-04-05T13:59:52;99582.56;;;15.27;43.12
31088;BME280;17745;55.914;37.554;2023-04-05T14:02:21;99580.97;;;15.71;42.29
31088;BME280;17745;55.914;37.554;2023-04-05T14:04:51;99584.25;;;15.63;42.44
31088;BME280;17745;55.914;37.554;2023-04-05T14:07:23;99576.41;;;14.09;45.30
31088;BME280;17745;55.914;37.554;2023-04-05T14:09:55;99583.41;;;15.17;43.46
31088;BME280;17745;55.914;37.554;2023-04-05T14:12:28;99581.69;;;14.71;44.10
31088;BME280;17745;55.914;37.554;2023-04-05T14:14:57;99579.56;;;14.68;44.36
31088;BME280;17745;55.914;37.554;2023-04-05T14:17:30;99581.69;;;14.66;44.37
31088;BME280;17745;55.914;37.554;2023-04-05T14:20:04;99585.94;;;14.87;44.02
31088;BME280;17745;55.914;37.554;2023-04-05T14:22:51;99579.03;;;14.66;44.39
31088;BME280;17745;55.914;37.554;2023-04-05T14:25:21;99589.97;;;14.49;44.65
31088;BME280;17745;55.914;37.554;2023-04-05T14:27:57;99580.09;;;14.80;44.29
31088;BME280;17745;55.914;37.554;2023-04-05T14:30:53;99592.56;;;14.95;44.45
31088;BME280;17745;55.914;37.554;2023-04-05T14:33:31;99592.56;;;14.95;44.45
31088;BME280;17745;55.914;37.554;2023-04-05T14:36:01;99595.84;;;15.42;43.25
31088;BME280;17745;55.914;37.554;2023-04-05T14:38:33;99595.25;;;14.90;44.12
31088;BME280;17745;55.914;37.554;2023-04-05T14:41:04;99601.78;;;15.19;43.64
31088;BME280;17745;55.914;37.554;2023-04-05T14:43:38;99601.28;;;15.22;43.51
31088;BME280;17745;55.914;37.554;2023-04-05T14:46:09;99604.37;;;15.44;43.14
31088;BME280;17745;55.914;37.554;2023-04-05T14:48:52;99597.53;;;15.18;43.44
31088;BME280;17745;55.914;37.554;2023-04-05T14:51:25;99608.38;;;14.19;45.18
31088;BME280;17745;55.914;37.554;2023-04-05T14:54:18;99601.41;;;14.54;44.54
31088;BME280;17745;55.914;37.554;2023-04-05T14:57:00;99603.81;;;14.56;44.63
31088;BME280;17745;55.914;37.554;2023-04-05T15:00:08;99599.31;;;14.25;45.16
31088;BME280;17745;55.914;37.554;2023-04-05T15:02:44;99604.13;;;14.23;45.23
31088;BME280;17745;55.914;37.554;2023-04-05T15:05:37;99606.75;;;13.97;45.85
31088;BME280;17745;55.914;37.554;2023-04-05T15:08:27;99611.19;;;13.50;46.70
31088;BME280;17745;55.914;37.554;2023-04-05T15:11:03;99605.69;;;13.88;46.08
31088;BME280;17745;55.914;37.554;2023-04-05T15:13:42;99618.13;;;13.67;46.52
31088;BME280;17745;55.914;37.554;2023-04-05T15:16:17;99613.63;;;13.72;46.35
31088;BME280;17745;55.914;37.554;2023-04-05T15:19:03;99619.72;;;13.57;46.70
31088;BME280;17745;55.914;37.554;2023-04-05T15:21:31;99627.19;;;13.66;46.54
31088;BME280;17745;55.914;37.554;2023-04-05T15:24:21;99626.53;;;13.38;47.21
31088;BME280;17745;55.914;37.554;2023-04-05T15:27:01;99636.59;;;13.25;47.41
31088;BME280;17745;55.914;37.554;2023-04-05T15:29:37;99634.41;;;13.12;47.77
31088;BME280;17745;55.914;37.554;2023-04-05T15:32:10;99643.78;;;12.77;48.75
31088;BME280;17745;55.914;37.554;2023-04-05T15:34:41;99642.00;;;12.87;48.53
31088;BME280;17745;55.914;37.554;2023-04-05T15:37:20;99636.44;;;12.89;48.37
31088;BME280;17745;55.914;37.554;2023-04-05T15:39:51;99639.34;;;12.93;48.38
31088;BME280;17745;55.914;37.554;2023-04-05T15:42:26;99645.69;;;12.81;48.65
31088;BME280;17745;55.914;37.554;2023-04-05T15:45:05;99650.69;;;12.78;48.85
31088;BME280;17745;55.914;37.554;2023-04-05T15:47:38;99659.22;;;12.42;49.87
31088;BME280;17745;55.914;37.554;2023-04-05T15:50:16;99651.47;;;12.40;49.78
31088;BME280;17745;55.914;37.554;2023-04-05T15:52:48;99656.34;;;12.49;49.66
31088;BME280;17745;55.914;37.554;2023-04-05T15:55:20;99654.03;;;12.25;50.36
31088;BME280;17745;55.914;37.554;2023-04-05T15:57:52;99652.00;;;12.10;50.82
31088;BME280;17745;55.914;37.554;2023-04-05T16:00:39;99667.06;;;12.32;50.33
31088;BME280;17745;55.914;37.554;2023-04-05T16:03:28;99659.31;;;11.97;51.15
31088;BME280;17745;55.914;37.554;2023-04-05T16:06:01;99662.19;;;12.18;50.79
31088;BME280;17745;55.914;37.554;2023-04-05T16:09:50;99663.13;;;12.07;51.10
31088;BME280;17745;55.914;37.554;2023-04-05T16:12:21;99659.47;;;11.85;51.68
31088;BME280;17745;55.914;37.554;2023-04-05T16:14:51;99659.69;;;11.84;51.79
31088;BME280;17745;55.914;37.554;2023-04-05T16:17:39;99670.09;;;11.63;52.31
31088;BME280;17745;55.914;37.554;2023-04-05T16:20:11;99669.22;;;11.57;52.72
31088;BME280;17745;55.914;37.554;2023-04-05T16:22:55;99672.03;;;11.51;52.91
31088;BME280;17745;55.914;37.554;2023-04-05T16:25:27;99679.44;;;11.26;53.55
31088;BME280;17745;55.914;37.554;2023-04-05T16:28:02;99683.41;;;11.46;53.15
31088;BME280;17745;55.914;37.554;2023-04-05T16:30:34;99677.47;;;11.17;54.11
31088;BME280;17745;55.914;37.554;2023-04-05T16:33:09;99684.25;;;10.73;55.44
31088;BME280;17745;55.914;37.554;2023-04-05T16:35:48;99692.09;;;10.68;55.74
31088;BME280;17745;55.914;37.554;2023-04-05T16:38:23;99686.09;;;11.29;53.79
31088;BME280;17745;55.914;37.554;2023-04-05T16:40:57;99697.81;;;10.60;56.02
31088;BME280;17745;55.914;37.554;2023-04-05T16:43:30;99691.16;;;10.74;55.56
31088;BME280;17745;55.914;37.554;2023-04-05T16:46:06;99699.25;;;10.84;55.11
31088;BME280;17745;55.914;37.554;2023-04-05T16:48:38;99695.91;;;10.72;55.45
31088;BME280;17745;55.914;37.554;2023-04-05T16:51:14;99695.09;;;10.25;56.96
31088;BME280;17745;55.914;37.554;2023-04-05T16:53:47;99704.16;;;10.41;56.63
31088;BME280;17745;55.914;37.554;2023-04-05T16:56:17;99705.13;;;10.52;56.33
31088;BME280;17745;55.914;37.554;2023-04-05T16:58:48;99702.28;;;10.13;57.52
31088;BME280;17745;55.914;37.554;2023-04-05T17:01:37;99710.87;;;9.91;58.00
31088;BME280;17745;55.914;37.554;2023-04-05T17:04:13;99708.88;;;10.27;57.17